createdAt,value
2023-05-06T00:00:39.934Z,25.00
2023-05-06T00:03:06.583Z,24.80
2023-05-06T00:05:33.156Z,22.10
2023-05-06T00:07:59.640Z,23.50
2023-05-06T00:10:26.205Z,30.10
2023-05-06T00:12:52.862Z,27.70
2023-05-06T00:15:19.708Z,26.90
2023-05-06T00:17:46.293Z,24.90
2023-05-06T00:20:13.234Z,22.50
2023-05-06T00:22:39.705Z,21.30
2023-05-06T00:25:07.131Z,21.90
2023-05-06T00:27:34.194Z,21.70
2023-05-06T00:30:00.726Z,20.10
2023-05-06T00:32:27.232Z,19.40
2023-05-06T00:34:53.677Z,21.20
2023-05-06T00:37:20.262Z,18.50
2023-05-06T00:39:46.913Z,16.90
2023-05-06T00:42:13.470Z,21.10
2023-05-06T00:44:40.525Z,20.80
2023-05-06T00:47:07.747Z,21.40
2023-05-06T00:49:34.909Z,19.40
2023-05-06T00:52:01.488Z,20.00
2023-05-06T00:54:28.243Z,20.40
2023-05-06T00:56:55.401Z,20.70
2023-05-06T00:59:23.384Z,19.30
2023-05-06T01:01:50.122Z,17.50
2023-05-06T01:04:16.659Z,25.00
2023-05-06T01:06:58.590Z,25.80
2023-05-06T01:09:24.951Z,20.00
2023-05-06T01:12:15.056Z,22.50
2023-05-06T01:15:04.614Z,23.80
2023-05-06T01:17:34.289Z,21.30
2023-05-06T01:20:02.427Z,24.90
2023-05-06T01:22:30.005Z,21.20
2023-05-06T01:24:56.624Z,26.00
2023-05-06T01:27:23.148Z,23.10
2023-05-06T01:29:49.845Z,19.00
2023-05-06T01:32:19.191Z,24.10
2023-05-06T01:35:03.521Z,18.40
2023-05-06T01:37:38.869Z,19.50
2023-05-06T01:40:06.264Z,17.80
2023-05-06T01:42:34.930Z,17.70
2023-05-06T01:45:05.201Z,17.50
2023-05-06T01:47:32.766Z,18.30
2023-05-06T01:49:59.985Z,18.40
2023-05-06T01:52:26.677Z,16.60
2023-05-06T01:54:53.145Z,18.30
2023-05-06T01:57:19.772Z,22.50
2023-05-06T01:59:46.226Z,19.70
2023-05-06T02:02:12.892Z,21.80
2023-05-06T02:04:39.384Z,21.40
2023-05-06T02:07:05.922Z,19.80
2023-05-06T02:09:32.415Z,25.00
2023-05-06T02:11:58.910Z,21.00
2023-05-06T02:14:25.780Z,21.10
2023-05-06T02:16:52.651Z,23.10
2023-05-06T02:19:22.437Z,20.00
2023-05-06T02:21:49.007Z,22.60
2023-05-06T02:24:15.453Z,19.00
2023-05-06T02:26:41.913Z,17.70
2023-05-06T02:29:08.528Z,21.10
2023-05-06T02:31:35.322Z,20.80
2023-05-06T02:34:01.835Z,19.00
2023-05-06T02:36:28.366Z,20.20
2023-05-06T02:38:54.765Z,20.60
2023-05-06T02:41:21.367Z,24.40
2023-05-06T02:43:47.894Z,21.60
2023-05-06T02:46:14.586Z,23.70
2023-05-06T02:48:41.227Z,22.50
2023-05-06T02:51:07.761Z,22.50
2023-05-06T02:53:34.278Z,22.70
2023-05-06T02:56:00.748Z,25.00
2023-05-06T02:58:27.246Z,23.10
2023-05-06T03:00:53.968Z,22.20
2023-05-06T03:03:22.281Z,21.50
2023-05-06T03:05:48.787Z,21.90
2023-05-06T03:08:15.276Z,20.80
2023-05-06T03:10:41.788Z,25.20
2023-05-06T03:13:08.384Z,20.10
2023-05-06T03:15:35.435Z,17.40
2023-05-06T03:18:01.974Z,18.20
2023-05-06T03:20:28.496Z,20.30
2023-05-06T03:22:56.225Z,18.10
2023-05-06T03:25:22.771Z,18.10
2023-05-06T03:27:49.306Z,19.20
2023-05-06T03:30:15.948Z,16.60
2023-05-06T03:32:42.763Z,23.50
2023-05-06T03:35:10.107Z,18.30
2023-05-06T03:37:36.751Z,18.40
2023-05-06T03:40:03.247Z,18.70
2023-05-06T03:42:30.070Z,16.70
2023-05-06T03:44:56.748Z,15.40
2023-05-06T03:47:23.524Z,23.90
2023-05-06T03:49:50.042Z,15.20
2023-05-06T03:52:16.629Z,19.80
2023-05-06T03:54:43.469Z,18.10
2023-05-06T03:57:09.938Z,14.40
2023-05-06T03:59:36.426Z,19.10
2023-05-06T04:02:03.120Z,16.80
2023-05-06T04:04:29.689Z,17.80
2023-05-06T04:06:56.427Z,17.20
2023-05-06T04:09:22.943Z,17.90
2023-05-06T04:11:49.439Z,15.90
2023-05-06T04:14:15.872Z,19.30
2023-05-06T04:16:42.438Z,21.30
2023-05-06T04:19:09.811Z,19.80
2023-05-06T04:21:36.266Z,18.80
2023-05-06T04:24:02.943Z,19.40
2023-05-06T04:26:29.578Z,17.20
2023-05-06T04:28:56.034Z,14.30
2023-05-06T04:31:22.621Z,17.60
2023-05-06T04:33:49.155Z,17.60
2023-05-06T04:36:15.803Z,19.00
2023-05-06T04:38:42.768Z,19.20
2023-05-06T04:41:09.241Z,17.40
2023-05-06T04:43:35.713Z,16.40
2023-05-06T04:46:02.269Z,18.30
2023-05-06T04:48:29.035Z,17.00
2023-05-06T04:50:55.573Z,16.20
2023-05-06T04:53:21.987Z,15.60
2023-05-06T04:55:48.546Z,15.10
2023-05-06T04:58:15.106Z,15.50
2023-05-06T05:00:41.848Z,14.90
2023-05-06T05:03:08.482Z,18.00
2023-05-06T05:05:35.030Z,17.10
2023-05-06T05:08:01.602Z,17.60
2023-05-06T05:10:28.248Z,17.70
2023-05-06T05:12:54.746Z,14.80
2023-05-06T05:15:21.335Z,15.40
2023-05-06T05:17:49.922Z,16.00
2023-05-06T05:20:16.953Z,18.30
2023-05-06T05:22:43.856Z,19.90
2023-05-06T05:25:10.689Z,18.10
2023-05-06T05:27:37.385Z,20.50
2023-05-06T05:30:04.516Z,17.60
2023-05-06T05:32:30.956Z,19.10
2023-05-06T05:34:57.482Z,17.20
2023-05-06T05:37:23.955Z,14.70
2023-05-06T05:39:50.535Z,14.80
2023-05-06T05:42:17.159Z,17.20
2023-05-06T05:44:43.696Z,14.70
2023-05-06T05:47:10.173Z,17.10
2023-05-06T05:49:36.852Z,19.60
2023-05-06T05:52:03.592Z,14.60
2023-05-06T05:54:30.092Z,14.90
2023-05-06T05:56:56.772Z,26.20
2023-05-06T05:59:23.479Z,22.20
2023-05-06T06:01:49.981Z,18.60
2023-05-06T06:04:16.529Z,15.10
2023-05-06T06:06:43.048Z,14.80
2023-05-06T06:09:09.889Z,18.20
2023-05-06T06:11:36.344Z,15.70
2023-05-06T06:14:02.798Z,18.50
2023-05-06T06:16:29.411Z,17.40
2023-05-06T06:18:56.232Z,13.80
2023-05-06T06:21:22.861Z,16.90
2023-05-06T06:23:49.356Z,20.40
2023-05-06T06:26:15.893Z,19.50
2023-05-06T06:28:42.349Z,16.20
2023-05-06T06:31:08.985Z,15.80
2023-05-06T06:33:35.402Z,19.10
2023-05-06T06:36:01.892Z,17.10
2023-05-06T06:38:28.750Z,15.00
2023-05-06T06:40:55.373Z,15.20
2023-05-06T06:43:21.851Z,15.00
2023-05-06T06:45:48.648Z,14.40
2023-05-06T06:48:15.980Z,14.70
2023-05-06T06:50:43.180Z,14.00
2023-05-06T06:53:10.615Z,14.90
2023-05-06T06:55:37.058Z,18.80
2023-05-06T06:58:03.536Z,12.60
2023-05-06T07:00:30.088Z,15.90
2023-05-06T07:02:56.687Z,15.80
2023-05-06T07:05:23.387Z,13.00
2023-05-06T07:07:49.908Z,15.30
2023-05-06T07:10:16.417Z,12.90
2023-05-06T07:12:43.295Z,12.40
2023-05-06T07:15:10.604Z,12.10
2023-05-06T07:20:04.725Z,11.60
2023-05-06T07:22:31.333Z,13.20
2023-05-06T07:24:57.773Z,12.60
2023-05-06T07:27:24.227Z,13.10
2023-05-06T07:29:51.210Z,13.00
2023-05-06T07:32:17.728Z,28.70
2023-05-06T07:34:44.163Z,14.60
2023-05-06T07:37:10.864Z,10.70
2023-05-06T07:39:37.305Z,12.10
2023-05-06T07:42:03.816Z,9.60
2023-05-06T07:44:30.297Z,10.50
2023-05-06T07:46:56.890Z,9.30
2023-05-06T07:49:23.546Z,13.30
2023-05-06T07:51:50.291Z,10.10
2023-05-06T07:54:16.753Z,11.30
2023-05-06T07:56:43.163Z,8.30
2023-05-06T07:59:09.639Z,9.40
2023-05-06T08:01:36.348Z,12.70
2023-05-06T08:04:03.027Z,8.70
2023-05-06T08:06:29.685Z,14.70
2023-05-06T08:08:56.135Z,9.30
2023-05-06T08:11:22.545Z,9.80
2023-05-06T08:13:49.044Z,10.20
2023-05-06T08:16:15.788Z,11.50
2023-05-06T08:18:42.258Z,11.00
2023-05-06T08:21:08.906Z,9.60
2023-05-06T08:23:35.654Z,12.60
2023-05-06T08:26:02.113Z,11.10
2023-05-06T08:28:28.673Z,10.70
2023-05-06T08:30:55.352Z,10.50
2023-05-06T08:33:21.899Z,11.90
2023-05-06T08:35:48.838Z,10.80
2023-05-06T08:38:15.438Z,10.40
2023-05-06T08:40:44.018Z,10.90
2023-05-06T08:43:14.850Z,12.00
2023-05-06T08:45:42.016Z,8.10
2023-05-06T08:48:09.365Z,11.20
2023-05-06T08:50:40.902Z,8.30
2023-05-06T08:53:08.280Z,11.40
2023-05-06T08:55:35.951Z,8.20
2023-05-06T08:58:05.122Z,7.70
2023-05-06T09:00:32.148Z,9.60
2023-05-06T09:02:58.682Z,8.90
2023-05-06T09:05:25.266Z,6.20
2023-05-06T09:07:51.756Z,8.20
2023-05-06T09:10:18.211Z,6.50
2023-05-06T09:12:44.894Z,10.10
2023-05-06T09:15:12.112Z,10.30
2023-05-06T09:21:13.460Z,7.00
2023-05-06T09:23:40.422Z,8.10
2023-05-06T09:26:07.200Z,10.50
2023-05-06T09:28:33.741Z,7.40
2023-05-06T09:31:00.933Z,8.40
2023-05-06T09:33:27.824Z,5.30
2023-05-06T09:35:54.311Z,7.00
2023-05-06T09:38:21.039Z,7.00
2023-05-06T09:40:47.604Z,9.00
2023-05-06T09:43:14.909Z,7.80
2023-05-06T09:45:41.792Z,9.40
2023-05-06T09:48:08.542Z,13.80
2023-05-06T09:50:36.590Z,8.00
2023-05-06T09:53:05.169Z,8.90
2023-05-06T09:55:33.338Z,21.70
2023-05-06T09:58:01.507Z,11.40
2023-05-06T10:00:30.744Z,9.10
2023-05-06T10:02:59.384Z,6.90
2023-05-06T10:05:28.615Z,10.00
2023-05-06T10:07:56.575Z,7.60
2023-05-06T10:10:25.598Z,7.40
2023-05-06T10:12:52.880Z,6.90
2023-05-06T10:15:19.449Z,7.40
